sensor_id;sensor_type;location;lat;lon;timestamp;temperature;humidity
52187;DHT22;38161;53.020;6.598;2023-04-24T00:00:12;10.40;99.90
52187;DHT22;38161;53.020;6.598;2023-04-24T00:02:39;10.40;99.90
52187;DHT22;38161;53.020;6.598;2023-04-24T00:05:06;10.40;99.90
52187;DHT22;38161;53.020;6.598;2023-04-24T00:07:33;10.30;99.90
52187;DHT22;38161;53.020;6.598;2023-04-24T00:09:59;10.30;99.90
52187;DHT22;38161;53.020;6.598;2023-04-24T00:12:25;10.30;99.90
52187;DHT22;38161;53.020;6.598;2023-04-24T00:14:51;10.20;99.90
52187;DHT22;38161;53.020;6.598;2023-04-24T00:17:17;10.20;99.90
52187;DHT22;38161;53.020;6.598;2023-04-24T00:19:47;10.20;99.90
52187;DHT22;38161;53.020;6.598;2023-04-24T00:22:13;10.10;99.90
52187;DHT22;38161;53.020;6.598;2023-04-24T00:24:40;10.10;99.90
52187;DHT22;38161;53.020;6.598;2023-04-24T00:27:05;10.10;99.90
52187;DHT22;38161;53.020;6.598;2023-04-24T00:29:31;10.10;99.90
52187;DHT22;38161;53.020;6.598;2023-04-24T00:31:57;10.10;99.90
52187;DHT22;38161;53.020;6.598;2023-04-24T00:34:23;10.10;99.90
52187;DHT22;38161;53.020;6.598;2023-04-24T00:36:49;10.10;99.90
52187;DHT22;38161;53.020;6.598;2023-04-24T00:39:20;10.00;99.90
52187;DHT22;38161;53.020;6.598;2023-04-24T00:41:46;10.00;99.90
52187;DHT22;38161;53.020;6.598;2023-04-24T00:44:14;10.00;99.90
52187;DHT22;38161;53.020;6.598;2023-04-24T00:46:40;10.00;99.90
52187;DHT22;38161;53.020;6.598;2023-04-24T00:49:06;9.90;99.90
52187;DHT22;38161;53.020;6.598;2023-04-24T00:51:32;9.90;99.90
52187;DHT22;38161;53.020;6.598;2023-04-24T00:53:59;9.90;99.90
52187;DHT22;38161;53.020;6.598;2023-04-24T00:56:26;9.90;99.90
52187;DHT22;38161;53.020;6.598;2023-04-24T00:58:52;9.90;99.90
52187;DHT22;38161;53.020;6.598;2023-04-24T01:01:21;9.90;99.90
52187;DHT22;38161;53.020;6.598;2023-04-24T01:03:49;9.90;99.90
52187;DHT22;38161;53.020;6.598;2023-04-24T01:06:16;9.80;99.90
52187;DHT22;38161;53.020;6.598;2023-04-24T01:08:45;9.80;99.90
52187;DHT22;38161;53.020;6.598;2023-04-24T01:11:12;9.80;99.90
52187;DHT22;38161;53.020;6.598;2023-04-24T01:13:37;9.80;99.90
52187;DHT22;38161;53.020;6.598;2023-04-24T01:16:03;9.90;99.90
52187;DHT22;38161;53.020;6.598;2023-04-24T01:18:29;9.80;99.90
52187;DHT22;38161;53.020;6.598;2023-04-24T01:20:59;9.80;99.90
52187;DHT22;38161;53.020;6.598;2023-04-24T01:23:28;9.80;99.90
52187;DHT22;38161;53.020;6.598;2023-04-24T01:25:54;9.80;99.90
52187;DHT22;38161;53.020;6.598;2023-04-24T01:28:21;9.80;99.90
52187;DHT22;38161;53.020;6.598;2023-04-24T01:30:47;9.80;99.90
52187;DHT22;38161;53.020;6.598;2023-04-24T01:33:13;9.80;99.90
52187;DHT22;38161;53.020;6.598;2023-04-24T01:35:39;9.80;99.90
52187;DHT22;38161;53.020;6.598;2023-04-24T01:38:05;9.80;99.90
52187;DHT22;38161;53.020;6.598;2023-04-24T01:40:32;9.80;99.90
52187;DHT22;38161;53.020;6.598;2023-04-24T01:42:58;9.80;99.90
52187;DHT22;38161;53.020;6.598;2023-04-24T01:45:24;9.70;99.90
52187;DHT22;38161;53.020;6.598;2023-04-24T01:47:50;9.70;99.90
52187;DHT22;38161;53.020;6.598;2023-04-24T01:50:16;9.70;99.90
52187;DHT22;38161;53.020;6.598;2023-04-24T01:52:42;9.70;99.90
52187;DHT22;38161;53.020;6.598;2023-04-24T01:55:09;9.70;99.90
52187;DHT22;38161;53.020;6.598;2023-04-24T01:57:35;9.70;99.90
52187;DHT22;38161;53.020;6.598;2023-04-24T02:00:02;9.70;99.90
52187;DHT22;38161;53.020;6.598;2023-04-24T02:02:29;9.70;99.90
52187;DHT22;38161;53.020;6.598;2023-04-24T02:04:56;9.80;99.90
52187;DHT22;38161;53.020;6.598;2023-04-24T02:07:22;9.80;99.90
52187;DHT22;38161;53.020;6.598;2023-04-24T02:09:48;9.80;99.90
52187;DHT22;38161;53.020;6.598;2023-04-24T02:12:15;9.80;99.90
52187;DHT22;38161;53.020;6.598;2023-04-24T02:14:40;9.80;99.90
52187;DHT22;38161;53.020;6.598;2023-04-24T02:17:07;9.80;99.90
52187;DHT22;38161;53.020;6.598;2023-04-24T02:19:33;9.80;99.90
52187;DHT22;38161;53.020;6.598;2023-04-24T02:21:59;9.80;99.90
52187;DHT22;38161;53.020;6.598;2023-04-24T02:24:25;9.90;99.90
52187;DHT22;38161;53.020;6.598;2023-04-24T02:26:50;9.90;99.90
52187;DHT22;38161;53.020;6.598;2023-04-24T02:29:16;9.90;99.90
52187;DHT22;38161;53.020;6.598;2023-04-24T02:31:42;9.80;99.90
52187;DHT22;38161;53.020;6.598;2023-04-24T02:34:08;9.90;99.90
52187;DHT22;38161;53.020;6.598;2023-04-24T02:36:34;9.90;99.90
52187;DHT22;38161;53.020;6.598;2023-04-24T02:39:00;9.80;99.90
52187;DHT22;38161;53.020;6.598;2023-04-24T02:41:26;9.80;99.90
52187;DHT22;38161;53.020;6.598;2023-04-24T02:43:58;9.80;99.90
52187;DHT22;38161;53.020;6.598;2023-04-24T02:46:24;9.80;99.90
52187;DHT22;38161;53.020;6.598;2023-04-24T02:48:50;9.70;99.90
52187;DHT22;38161;53.020;6.598;2023-04-24T02:51:15;9.70;99.90
52187;DHT22;38161;53.020;6.598;2023-04-24T02:53:41;9.70;99.90
52187;DHT22;38161;53.020;6.598;2023-04-24T02:56:07;9.70;99.90
52187;DHT22;38161;53.020;6.598;2023-04-24T02:58:33;9.60;99.90
52187;DHT22;38161;53.020;6.598;2023-04-24T03:00:59;9.60;99.90
52187;DHT22;38161;53.020;6.598;2023-04-24T03:03:25;9.60;99.90
52187;DHT22;38161;53.020;6.598;2023-04-24T03:05:51;9.60;99.90
52187;DHT22;38161;53.020;6.598;2023-04-24T03:08:17;9.60;99.90
52187;DHT22;38161;53.020;6.598;2023-04-24T03:10:43;9.60;99.90
52187;DHT22;38161;53.020;6.598;2023-04-24T03:13:09;9.60;99.90
52187;DHT22;38161;53.020;6.598;2023-04-24T03:15:34;9.60;99.90
52187;DHT22;38161;53.020;6.598;2023-04-24T03:18:00;9.60;99.90
52187;DHT22;38161;53.020;6.598;2023-04-24T03:20:26;9.60;99.90
52187;DHT22;38161;53.020;6.598;2023-04-24T03:22:52;9.60;99.90
52187;DHT22;38161;53.020;6.598;2023-04-24T03:25:18;9.50;99.90
52187;DHT22;38161;53.020;6.598;2023-04-24T03:27:43;9.50;99.90
52187;DHT22;38161;53.020;6.598;2023-04-24T03:30:10;9.50;99.90
52187;DHT22;38161;53.020;6.598;2023-04-24T03:32:36;9.50;99.90
52187;DHT22;38161;53.020;6.598;2023-04-24T03:35:02;9.50;99.90
52187;DHT22;38161;53.020;6.598;2023-04-24T03:37:28;9.50;99.90
52187;DHT22;38161;53.020;6.598;2023-04-24T03:39:54;9.50;99.90
52187;DHT22;38161;53.020;6.598;2023-04-24T03:42:20;9.50;99.90
52187;DHT22;38161;53.020;6.598;2023-04-24T03:44:46;9.50;99.90
52187;DHT22;38161;53.020;6.598;2023-04-24T03:47:11;9.50;99.90
52187;DHT22;38161;53.020;6.598;2023-04-24T03:49:37;9.40;99.90
52187;DHT22;38161;53.020;6.598;2023-04-24T03:52:03;9.40;99.90
52187;DHT22;38161;53.020;6.598;2023-04-24T03:54:28;9.40;99.90
52187;DHT22;38161;53.020;6.598;2023-04-24T03:56:54;9.40;99.90
52187;DHT22;38161;53.020;6.598;2023-04-24T03:59:20;9.40;99.90
52187;DHT22;38161;53.020;6.598;2023-04-24T04:01:46;9.40;99.90
52187;DHT22;38161;53.020;6.598;2023-04-24T04:04:11;9.30;99.90
52187;DHT22;38161;53.020;6.598;2023-04-24T04:06:37;9.30;99.90
52187;DHT22;38161;53.020;6.598;2023-04-24T04:09:03;9.30;99.90
52187;DHT22;38161;53.020;6.598;2023-04-24T04:11:29;9.30;99.90
52187;DHT22;38161;53.020;6.598;2023-04-24T04:13:56;9.30;99.90
52187;DHT22;38161;53.020;6.598;2023-04-24T04:16:22;9.30;99.90
52187;DHT22;38161;53.020;6.598;2023-04-24T04:18:48;9.20;99.90
52187;DHT22;38161;53.020;6.598;2023-04-24T04:21:14;9.20;99.90
52187;DHT22;38161;53.020;6.598;2023-04-24T04:23:40;9.20;99.90
52187;DHT22;38161;53.020;6.598;2023-04-24T04:26:06;9.20;99.90
52187;DHT22;38161;53.020;6.598;2023-04-24T04:28:32;9.20;99.90
52187;DHT22;38161;53.020;6.598;2023-04-24T04:30:58;9.20;99.90
52187;DHT22;38161;53.020;6.598;2023-04-24T04:33:24;9.20;99.90
52187;DHT22;38161;53.020;6.598;2023-04-24T04:35:50;9.20;99.90
52187;DHT22;38161;53.020;6.598;2023-04-24T04:38:22;9.20;99.90
52187;DHT22;38161;53.020;6.598;2023-04-24T04:40:48;9.20;99.90
52187;DHT22;38161;53.020;6.598;2023-04-24T04:43:14;9.20;99.90
52187;DHT22;38161;53.020;6.598;2023-04-24T04:45:42;9.20;99.90
52187;DHT22;38161;53.020;6.598;2023-04-24T04:48:09;9.20;99.90
52187;DHT22;38161;53.020;6.598;2023-04-24T04:50:38;9.20;99.90
52187;DHT22;38161;53.020;6.598;2023-04-24T04:53:04;9.20;99.90
52187;DHT22;38161;53.020;6.598;2023-04-24T04:55:30;9.20;99.90
52187;DHT22;38161;53.020;6.598;2023-04-24T04:57:56;9.20;99.90
52187;DHT22;38161;53.020;6.598;2023-04-24T05:00:22;9.20;99.90
52187;DHT22;38161;53.020;6.598;2023-04-24T05:02:51;9.20;99.90
52187;DHT22;38161;53.020;6.598;2023-04-24T05:05:17;9.10;99.90
52187;DHT22;38161;53.020;6.598;2023-04-24T05:07:43;9.10;99.90
52187;DHT22;38161;53.020;6.598;2023-04-24T05:10:11;9.10;99.90
52187;DHT22;38161;53.020;6.598;2023-04-24T05:12:37;9.10;99.90
52187;DHT22;38161;53.020;6.598;2023-04-24T05:15:03;9.10;99.90
52187;DHT22;38161;53.020;6.598;2023-04-24T05:17:29;9.10;99.90
52187;DHT22;38161;53.020;6.598;2023-04-24T05:19:55;9.10;99.90
52187;DHT22;38161;53.020;6.598;2023-04-24T05:22:20;9.10;99.90
52187;DHT22;38161;53.020;6.598;2023-04-24T05:24:47;9.10;99.90
52187;DHT22;38161;53.020;6.598;2023-04-24T05:27:13;9.00;99.90
52187;DHT22;38161;53.020;6.598;2023-04-24T05:29:39;9.00;99.90
52187;DHT22;38161;53.020;6.598;2023-04-24T05:32:05;9.00;99.90
52187;DHT22;38161;53.020;6.598;2023-04-24T05:34:31;9.00;99.90
52187;DHT22;38161;53.020;6.598;2023-04-24T05:36:57;9.10;99.90
52187;DHT22;38161;53.020;6.598;2023-04-24T05:39:23;9.10;99.90
52187;DHT22;38161;53.020;6.598;2023-04-24T05:41:50;9.10;99.90
52187;DHT22;38161;53.020;6.598;2023-04-24T05:44:16;9.10;99.90
52187;DHT22;38161;53.020;6.598;2023-04-24T05:46:42;9.10;99.90
52187;DHT22;38161;53.020;6.598;2023-04-24T05:49:08;9.10;99.90
52187;DHT22;38161;53.020;6.598;2023-04-24T05:51:34;9.10;99.90
52187;DHT22;38161;53.020;6.598;2023-04-24T05:53:59;9.10;99.90
52187;DHT22;38161;53.020;6.598;2023-04-24T05:56:26;9.20;99.90
52187;DHT22;38161;53.020;6.598;2023-04-24T05:58:52;9.20;99.90
52187;DHT22;38161;53.020;6.598;2023-04-24T06:01:18;9.20;99.90
52187;DHT22;38161;53.020;6.598;2023-04-24T06:03:45;9.20;99.90
52187;DHT22;38161;53.020;6.598;2023-04-24T06:06:10;9.20;99.90
52187;DHT22;38161;53.020;6.598;2023-04-24T06:08:36;9.20;99.90
52187;DHT22;38161;53.020;6.598;2023-04-24T06:11:02;9.30;99.90
52187;DHT22;38161;53.020;6.598;2023-04-24T06:13:28;9.30;99.90
52187;DHT22;38161;53.020;6.598;2023-04-24T06:15:53;9.30;99.90
52187;DHT22;38161;53.020;6.598;2023-04-24T06:18:19;9.40;99.90
52187;DHT22;38161;53.020;6.598;2023-04-24T06:20:46;9.40;99.90
52187;DHT22;38161;53.020;6.598;2023-04-24T06:23:12;9.40;99.90
52187;DHT22;38161;53.020;6.598;2023-04-24T06:25:38;9.50;99.90
52187;DHT22;38161;53.020;6.598;2023-04-24T06:28:04;9.50;99.90
52187;DHT22;38161;53.020;6.598;2023-04-24T06:30:30;9.50;99.90
52187;DHT22;38161;53.020;6.598;2023-04-24T06:32:56;9.50;99.90
52187;DHT22;38161;53.020;6.598;2023-04-24T06:35:22;9.60;99.90
52187;DHT22;38161;53.020;6.598;2023-04-24T06:37:48;9.60;99.90
52187;DHT22;38161;53.020;6.598;2023-04-24T06:40:14;9.70;99.90
52187;DHT22;38161;53.020;6.598;2023-04-24T06:42:40;9.70;99.90
52187;DHT22;38161;53.020;6.598;2023-04-24T06:45:05;9.70;99.90
52187;DHT22;38161;53.020;6.598;2023-04-24T06:47:31;9.70;99.90
52187;DHT22;38161;53.020;6.598;2023-04-24T06:49:58;9.80;99.90
52187;DHT22;38161;53.020;6.598;2023-04-24T06:52:24;9.80;99.90
52187;DHT22;38161;53.020;6.598;2023-04-24T06:54:50;9.80;99.90
52187;DHT22;38161;53.020;6.598;2023-04-24T06:57:17;9.80;99.90
52187;DHT22;38161;53.020;6.598;2023-04-24T06:59:42;9.80;99.90
52187;DHT22;38161;53.020;6.598;2023-04-24T07:02:08;9.80;99.90
52187;DHT22;38161;53.020;6.598;2023-04-24T07:04:34;9.80;99.90
52187;DHT22;38161;53.020;6.598;2023-04-24T07:07:00;9.90;99.90
52187;DHT22;38161;53.020;6.598;2023-04-24T07:09:26;9.90;99.90
52187;DHT22;38161;53.020;6.598;2023-04-24T07:11:52;9.90;99.90
52187;DHT22;38161;53.020;6.598;2023-04-24T07:14:19;9.90;99.90
52187;DHT22;38161;53.020;6.598;2023-04-24T07:16:45;9.90;99.90
52187;DHT22;38161;53.020;6.598;2023-04-24T07:19:13;9.90;99.90
52187;DHT22;38161;53.020;6.598;2023-04-24T07:21:39;9.90;99.90
52187;DHT22;38161;53.020;6.598;2023-04-24T07:24:05;9.90;99.90
52187;DHT22;38161;53.020;6.598;2023-04-24T07:26:35;9.90;99.90
52187;DHT22;38161;53.020;6.598;2023-04-24T07:29:01;10.00;99.90
52187;DHT22;38161;53.020;6.598;2023-04-24T07:31:26;10.00;99.90
52187;DHT22;38161;53.020;6.598;2023-04-24T07:33:52;10.00;99.90
52187;DHT22;38161;53.020;6.598;2023-04-24T07:36:18;10.00;99.90
52187;DHT22;38161;53.020;6.598;2023-04-24T07:38:47;10.00;99.90
52187;DHT22;38161;53.020;6.598;2023-04-24T07:41:14;10.00;99.90
52187;DHT22;38161;53.020;6.598;2023-04-24T07:43:40;10.00;99.90
52187;DHT22;38161;53.020;6.598;2023-04-24T07:46:07;10.00;99.90
52187;DHT22;38161;53.020;6.598;2023-04-24T07:48:32;9.90;99.90
52187;DHT22;38161;53.020;6.598;2023-04-24T07:50:58;9.90;99.90
52187;DHT22;38161;53.020;6.598;2023-04-24T07:53:24;9.90;99.90
52187;DHT22;38161;53.020;6.598;2023-04-24T07:55:50;9.80;99.90
52187;DHT22;38161;53.020;6.598;2023-04-24T07:58:18;9.80;99.90
52187;DHT22;38161;53.020;6.598;2023-04-24T08:00:44;9.80;99.90
52187;DHT22;38161;53.020;6.598;2023-04-24T08:03:10;9.80;99.90
52187;DHT22;38161;53.020;6.598;2023-04-24T08:05:41;9.80;99.90
52187;DHT22;38161;53.020;6.598;2023-04-24T08:08:08;9.80;99.90
52187;DHT22;38161;53.020;6.598;2023-04-24T08:10:34;9.80;99.90
52187;DHT22;38161;53.020;6.598;2023-04-24T08:13:00;9.70;99.90
52187;DHT22;38161;53.020;6.598;2023-04-24T08:15:27;9.80;99.90
52187;DHT22;38161;53.020;6.598;2023-04-24T08:17:53;9.80;99.90
52187;DHT22;38161;53.020;6.598;2023-04-24T08:20:18;9.80;99.90
52187;DHT22;38161;53.020;6.598;2023-04-24T08:22:44;9.70;99.90
52187;DHT22;38161;53.020;6.598;2023-04-24T08:25:12;9.70;99.90
52187;DHT22;38161;53.020;6.598;2023-04-24T08:27:38;9.60;99.90
52187;DHT22;38161;53.020;6.598;2023-04-24T08:30:05;9.60;99.90
52187;DHT22;38161;53.020;6.598;2023-04-24T08:32:31;9.60;99.90
52187;DHT22;38161;53.020;6.598;2023-04-24T08:34:58;9.60;99.90
52187;DHT22;38161;53.020;6.598;2023-04-24T08:37:25;9.60;99.90
52187;DHT22;38161;53.020;6.598;2023-04-24T08:39:51;9.50;99.90
52187;DHT22;38161;53.020;6.598;2023-04-24T08:42:18;9.50;99.90
52187;DHT22;38161;53.020;6.598;2023-04-24T08:44:49;9.50;99.90
52187;DHT22;38161;53.020;6.598;2023-04-24T08:47:15;9.40;99.90
52187;DHT22;38161;53.020;6.598;2023-04-24T08:49:41;9.40;99.90
52187;DHT22;38161;53.020;6.598;2023-04-24T08:52:08;9.40;99.90
52187;DHT22;38161;53.020;6.598;2023-04-24T08:54:35;9.40;99.90
52187;DHT22;38161;53.020;6.598;2023-04-24T08:57:02;9.30;99.90
52187;DHT22;38161;53.020;6.598;2023-04-24T08:59:29;9.40;99.90
52187;DHT22;38161;53.020;6.598;2023-04-24T09:01:55;9.30;99.90
52187;DHT22;38161;53.020;6.598;2023-04-24T09:04:22;9.30;99.90
52187;DHT22;38161;53.020;6.598;2023-04-24T09:06:57;9.20;99.90
52187;DHT22;38161;53.020;6.598;2023-04-24T09:09:24;9.20;99.90
52187;DHT22;38161;53.020;6.598;2023-04-24T09:11:51;9.10;99.90
52187;DHT22;38161;53.020;6.598;2023-04-24T09:14:19;9.10;99.90
52187;DHT22;38161;53.020;6.598;2023-04-24T09:16:46;9.10;99.90
52187;DHT22;38161;53.020;6.598;2023-04-24T09:19:12;9.10;99.90
52187;DHT22;38161;53.020;6.598;2023-04-24T09:21:38;9.10;99.90
52187;DHT22;38161;53.020;6.598;2023-04-24T09:24:06;9.10;99.90
52187;DHT22;38161;53.020;6.598;2023-04-24T09:26:35;9.10;99.90
52187;DHT22;38161;53.020;6.598;2023-04-24T09:29:01;9.10;99.90
52187;DHT22;38161;53.020;6.598;2023-04-24T09:31:29;9.10;99.90
52187;DHT22;38161;53.020;6.598;2023-04-24T09:36:28;9.10;99.90
52187;DHT22;38161;53.020;6.598;2023-04-24T09:38:59;9.20;99.90
52187;DHT22;38161;53.020;6.598;2023-04-24T09:41:26;9.20;99.90
52187;DHT22;38161;53.020;6.598;2023-04-24T09:43:54;9.20;99.90
52187;DHT22;38161;53.020;6.598;2023-04-24T09:46:20;9.20;99.90
52187;DHT22;38161;53.020;6.598;2023-04-24T09:48:49;9.20;99.90
52187;DHT22;38161;53.020;6.598;2023-04-24T09:51:15;9.20;99.90
52187;DHT22;38161;53.020;6.598;2023-04-24T09:53:46;9.20;99.90
52187;DHT22;38161;53.020;6.598;2023-04-24T09:56:12;9.10;99.90
52187;DHT22;38161;53.020;6.598;2023-04-24T09:58:38;9.10;99.90
52187;DHT22;38161;53.020;6.598;2023-04-24T10:01:04;9.10;99.90
52187;DHT22;38161;53.020;6.598;2023-04-24T10:03:31;9.20;99.90
52187;DHT22;38161;53.020;6.598;2023-04-24T10:06:02;9.20;99.90
52187;DHT22;38161;53.020;6.598;2023-04-24T10:08:33;9.10;99.90
52187;DHT22;38161;53.020;6.598;2023-04-24T10:11:00;9.10;99.90
52187;DHT22;38161;53.020;6.598;2023-04-24T10:13:28;9.10;99.90
52187;DHT22;38161;53.020;6.598;2023-04-24T10:15:54;9.20;99.90
52187;DHT22;38161;53.020;6.598;2023-04-24T10:18:20;9.20;99.90
52187;DHT22;38161;53.020;6.598;2023-04-24T10:20:46;9.20;99.90
52187;DHT22;38161;53.020;6.598;2023-04-24T10:23:12;9.20;99.90
52187;DHT22;38161;53.020;6.598;2023-04-24T10:25:38;9.20;99.90
52187;DHT22;38161;53.020;6.598;2023-04-24T10:28:05;9.30;99.90
52187;DHT22;38161;53.020;6.598;2023-04-24T10:30:31;9.30;99.90
52187;DHT22;38161;53.020;6.598;2023-04-24T10:33:04;9.30;99.90
52187;DHT22;38161;53.020;6.598;2023-04-24T10:35:32;9.30;99.90
52187;DHT22;38161;53.020;6.598;2023-04-24T10:38:05;9.30;99.90
52187;DHT22;38161;53.020;6.598;2023-04-24T10:40:35;9.30;99.90
52187;DHT22;38161;53.020;6.598;2023-04-24T10:43:08;9.30;99.90
52187;DHT22;38161;53.020;6.598;2023-04-24T10:45:37;9.30;99.90
52187;DHT22;38161;53.020;6.598;2023-04-24T10:48:05;9.30;99.90
52187;DHT22;38161;53.020;6.598;2023-04-24T10:50:50;9.30;99.90
52187;DHT22;38161;53.020;6.598;2023-04-24T10:53:21;9.30;99.90
52187;DHT22;38161;53.020;6.598;2023-04-24T10:55:59;9.30;99.90
52187;DHT22;38161;53.020;6.598;2023-04-24T10:58:40;9.30;99.90
52187;DHT22;38161;53.020;6.598;2023-04-24T11:01:06;9.30;99.90
52187;DHT22;38161;53.020;6.598;2023-04-24T11:03:34;9.30;99.90
52187;DHT22;38161;53.020;6.598;2023-04-24T11:06:07;9.30;99.90
52187;DHT22;38161;53.020;6.598;2023-04-24T11:11:13;9.30;99.90
52187;DHT22;38161;53.020;6.598;2023-04-24T11:16:27;9.30;99.90
52187;DHT22;38161;53.020;6.598;2023-04-24T11:19:07;9.40;99.90
52187;DHT22;38161;53.020;6.598;2023-04-24T11:27:18;9.40;99.90
52187;DHT22;38161;53.020;6.598;2023-04-24T11:32:26;9.40;99.90
52187;DHT22;38161;53.020;6.598;2023-04-24T11:34:58;9.30;99.90
52187;DHT22;38161;53.020;6.598;2023-04-24T11:37:33;9.30;99.90
52187;DHT22;38161;53.020;6.598;2023-04-24T11:39:59;9.30;99.90
52187;DHT22;38161;53.020;6.598;2023-04-24T11:42:25;9.40;99.90
52187;DHT22;38161;53.020;6.598;2023-04-24T11:44:54;9.50;99.90
52187;DHT22;38161;53.020;6.598;2023-04-24T11:47:29;9.70;99.90
52187;DHT22;38161;53.020;6.598;2023-04-24T11:49:55;9.80;99.90
52187;DHT22;38161;53.020;6.598;2023-04-24T11:52:21;9.90;99.90
52187;DHT22;38161;53.020;6.598;2023-04-24T11:54:48;9.80;99.90
52187;DHT22;38161;53.020;6.598;2023-04-24T11:57:15;9.80;99.90
52187;DHT22;38161;53.020;6.598;2023-04-24T11:59:41;9.70;99.90
52187;DHT22;38161;53.020;6.598;2023-04-24T12:02:07;9.60;99.90
52187;DHT22;38161;53.020;6.598;2023-04-24T12:04:40;9.40;99.90
52187;DHT22;38161;53.020;6.598;2023-04-24T12:07:06;9.30;99.90
52187;DHT22;38161;53.020;6.598;2023-04-24T12:09:43;9.20;99.90
52187;DHT22;38161;53.020;6.598;2023-04-24T12:12:11;9.20;99.90
52187;DHT22;38161;53.020;6.598;2023-04-24T12:14:49;9.10;99.90
52187;DHT22;38161;53.020;6.598;2023-04-24T12:17:16;9.00;99.90
52187;DHT22;38161;53.020;6.598;2023-04-24T12:19:46;9.00;99.90
52187;DHT22;38161;53.020;6.598;2023-04-24T12:22:13;9.00;99.90
52187;DHT22;38161;53.020;6.598;2023-04-24T12:25:02;9.00;99.90
52187;DHT22;38161;53.020;6.598;2023-04-24T12:27:33;9.10;99.90
52187;DHT22;38161;53.020;6.598;2023-04-24T12:30:01;9.10;99.90
52187;DHT22;38161;53.020;6.598;2023-04-24T12:32:27;9.10;99.90
52187;DHT22;38161;53.020;6.598;2023-04-24T12:34:54;9.20;99.90
52187;DHT22;38161;53.020;6.598;2023-04-24T12:37:23;9.20;99.90
52187;DHT22;38161;53.020;6.598;2023-04-24T12:40:09;9.30;99.90
52187;DHT22;38161;53.020;6.598;2023-04-24T12:42:35;9.30;99.90
52187;DHT22;38161;53.020;6.598;2023-04-24T12:45:06;9.40;99.90
52187;DHT22;38161;53.020;6.598;2023-04-24T12:47:34;9.50;99.90
52187;DHT22;38161;53.020;6.598;2023-04-24T12:50:01;9.70;99.90
52187;DHT22;38161;53.020;6.598;2023-04-24T12:52:29;9.80;99.90
52187;DHT22;38161;53.020;6.598;2023-04-24T12:54:57;9.90;99.90
52187;DHT22;38161;53.020;6.598;2023-04-24T12:57:24;9.80;99.90
52187;DHT22;38161;53.020;6.598;2023-04-24T12:59:53;9.80;99.90
52187;DHT22;38161;53.020;6.598;2023-04-24T13:02:19;9.70;99.90
52187;DHT22;38161;53.020;6.598;2023-04-24T13:04:45;9.60;99.90
52187;DHT22;38161;53.020;6.598;2023-04-24T13:07:13;9.60;99.90
52187;DHT22;38161;53.020;6.598;2023-04-24T13:09:40;9.60;99.90
52187;DHT22;38161;53.020;6.598;2023-04-24T13:12:06;9.50;99.90
52187;DHT22;38161;53.020;6.598;2023-04-24T13:14:32;9.60;99.90
52187;DHT22;38161;53.020;6.598;2023-04-24T13:16:58;9.70;99.90
52187;DHT22;38161;53.020;6.598;2023-04-24T13:19:25;9.80;99.90
52187;DHT22;38161;53.020;6.598;2023-04-24T13:21:55;9.70;99.90
52187;DHT22;38161;53.020;6.598;2023-04-24T13:24:22;9.70;99.90
52187;DHT22;38161;53.020;6.598;2023-04-24T13:26:51;9.60;99.90
52187;DHT22;38161;53.020;6.598;2023-04-24T13:29:17;9.50;99.90
52187;DHT22;38161;53.020;6.598;2023-04-24T13:31:43;9.50;99.90
52187;DHT22;38161;53.020;6.598;2023-04-24T13:34:08;9.50;99.90
52187;DHT22;38161;53.020;6.598;2023-04-24T13:36:34;9.40;99.90
52187;DHT22;38161;53.020;6.598;2023-04-24T13:39:01;9.40;99.90
52187;DHT22;38161;53.020;6.598;2023-04-24T13:41:28;9.40;99.90
52187;DHT22;38161;53.020;6.598;2023-04-24T13:43:54;9.40;99.90
52187;DHT22;38161;53.020;6.598;2023-04-24T13:46:20;9.50;99.90
52187;DHT22;38161;53.020;6.598;2023-04-24T13:48:46;9.60;99.90
52187;DHT22;38161;53.020;6.598;2023-04-24T13:51:12;9.70;99.90
52187;DHT22;38161;53.020;6.598;2023-04-24T13:53:37;9.80;99.90
52187;DHT22;38161;53.020;6.598;2023-04-24T13:56:04;9.80;99.90
52187;DHT22;38161;53.020;6.598;2023-04-24T13:58:35;9.90;99.90
52187;DHT22;38161;53.020;6.598;2023-04-24T14:01:02;9.90;99.90
52187;DHT22;38161;53.020;6.598;2023-04-24T14:03:29;9.90;99.90
52187;DHT22;38161;53.020;6.598;2023-04-24T14:05:55;9.90;99.90
52187;DHT22;38161;53.020;6.598;2023-04-24T14:08:21;9.80;99.90
52187;DHT22;38161;53.020;6.598;2023-04-24T14:10:47;9.80;99.90
52187;DHT22;38161;53.020;6.598;2023-04-24T14:13:13;9.70;99.90
52187;DHT22;38161;53.020;6.598;2023-04-24T14:15:39;9.70;99.90
52187;DHT22;38161;53.020;6.598;2023-04-24T14:18:05;9.60;99.90
52187;DHT22;38161;53.020;6.598;2023-04-24T14:20:31;9.50;99.90
52187;DHT22;38161;53.020;6.598;2023-04-24T14:22:57;9.50;99.90
52187;DHT22;38161;53.020;6.598;2023-04-24T14:25:26;9.50;99.90
52187;DHT22;38161;53.020;6.598;2023-04-24T14:27:52;9.40;99.90
52187;DHT22;38161;53.020;6.598;2023-04-24T14:30:18;9.40;99.90
52187;DHT22;38161;53.020;6.598;2023-04-24T14:32:44;9.40;99.90
52187;DHT22;38161;53.020;6.598;2023-04-24T14:35:10;9.40;99.90
52187;DHT22;38161;53.020;6.598;2023-04-24T14:37:36;9.40;99.90
52187;DHT22;38161;53.020;6.598;2023-04-24T14:40:03;9.30;99.90
52187;DHT22;38161;53.020;6.598;2023-04-24T14:42:30;9.30;99.90
52187;DHT22;38161;53.020;6.598;2023-04-24T14:44:56;9.30;99.90
52187;DHT22;38161;53.020;6.598;2023-04-24T14:47:22;9.20;99.90
52187;DHT22;38161;53.020;6.598;2023-04-24T14:49:50;9.20;99.90
52187;DHT22;38161;53.020;6.598;2023-04-24T14:52:16;9.20;99.90
52187;DHT22;38161;53.020;6.598;2023-04-24T14:54:42;9.10;99.90
52187;DHT22;38161;53.020;6.598;2023-04-24T14:57:08;9.20;99.90
52187;DHT22;38161;53.020;6.598;2023-04-24T14:59:34;9.20;99.90
52187;DHT22;38161;53.020;6.598;2023-04-24T15:02:00;9.20;99.90
52187;DHT22;38161;53.020;6.598;2023-04-24T15:04:27;9.10;99.90
52187;DHT22;38161;53.020;6.598;2023-04-24T15:06:54;9.10;99.90
52187;DHT22;38161;53.020;6.598;2023-04-24T15:09:21;9.10;99.90
52187;DHT22;38161;53.020;6.598;2023-04-24T15:11:48;9.10;99.90
52187;DHT22;38161;53.020;6.598;2023-04-24T15:14:16;9.10;99.90
52187;DHT22;38161;53.020;6.598;2023-04-24T15:16:42;9.10;99.90
52187;DHT22;38161;53.020;6.598;2023-04-24T15:19:07;9.10;99.90
52187;DHT22;38161;53.020;6.598;2023-04-24T15:21:33;9.10;99.90
52187;DHT22;38161;53.020;6.598;2023-04-24T15:23:59;9.10;99.90
52187;DHT22;38161;53.020;6.598;2023-04-24T15:26:25;9.20;99.90
52187;DHT22;38161;53.020;6.598;2023-04-24T15:28:51;9.10;99.90
52187;DHT22;38161;53.020;6.598;2023-04-24T15:31:18;9.20;99.90
52187;DHT22;38161;53.020;6.598;2023-04-24T15:33:44;9.10;99.90
52187;DHT22;38161;53.020;6.598;2023-04-24T15:36:10;9.10;99.90
52187;DHT22;38161;53.020;6.598;2023-04-24T15:38:37;9.10;99.90
52187;DHT22;38161;53.020;6.598;2023-04-24T15:41:02;9.10;99.90
52187;DHT22;38161;53.020;6.598;2023-04-24T15:43:28;9.00;99.90
52187;DHT22;38161;53.020;6.598;2023-04-24T15:46:00;9.00;99.90
52187;DHT22;38161;53.020;6.598;2023-04-24T15:48:27;9.00;99.90
52187;DHT22;38161;53.020;6.598;2023-04-24T15:50:53;9.00;99.90
52187;DHT22;38161;53.020;6.598;2023-04-24T15:53:18;9.00;99.90
52187;DHT22;38161;53.020;6.598;2023-04-24T15:55:50;9.00;99.90
52187;DHT22;38161;53.020;6.598;2023-04-24T15:58:16;9.00;99.90